sensor_id;sensor_type;location;lat;lon;timestamp;temperature;humidity
78793;SHT31;68134;51.984;5.652;2023-04-01T00:01:13;11.5;83.1
78793;SHT31;68134;51.984;5.652;2023-04-01T00:03:43;11.5;83.0
78793;SHT31;68134;51.984;5.652;2023-04-01T00:06:16;11.5;83.0
78793;SHT31;68134;51.984;5.652;2023-04-01T00:08:46;11.5;82.9
78793;SHT31;68134;51.984;5.652;2023-04-01T00:11:17;11.6;82.8
78793;SHT31;68134;51.984;5.652;2023-04-01T00:13:48;11.6;82.7
78793;SHT31;68134;51.984;5.652;2023-04-01T00:16:18;11.6;82.6
78793;SHT31;68134;51.984;5.652;2023-04-01T00:18:49;11.6;82.6
78793;SHT31;68134;51.984;5.652;2023-04-01T00:21:20;11.6;82.5
78793;SHT31;68134;51.984;5.652;2023-04-01T00:23:50;11.6;82.6
78793;SHT31;68134;51.984;5.652;2023-04-01T00:26:21;11.6;82.4
78793;SHT31;68134;51.984;5.652;2023-04-01T00:28:52;11.6;82.5
78793;SHT31;68134;51.984;5.652;2023-04-01T00:31:22;11.6;82.3
78793;SHT31;68134;51.984;5.652;2023-04-01T00:33:52;11.6;82.2
78793;SHT31;68134;51.984;5.652;2023-04-01T00:36:22;11.7;82.2
78793;SHT31;68134;51.984;5.652;2023-04-01T00:38:51;11.7;82.3
78793;SHT31;68134;51.984;5.652;2023-04-01T00:41:22;11.7;82.1
78793;SHT31;68134;51.984;5.652;2023-04-01T00:44:15;11.7;82.1
78793;SHT31;68134;51.984;5.652;2023-04-01T00:46:46;11.7;82.2
78793;SHT31;68134;51.984;5.652;2023-04-01T00:49:19;11.7;81.9
78793;SHT31;68134;51.984;5.652;2023-04-01T00:51:52;11.7;81.7
78793;SHT31;68134;51.984;5.652;2023-04-01T00:54:25;11.8;81.8
78793;SHT31;68134;51.984;5.652;2023-04-01T00:57:00;11.8;81.9
78793;SHT31;68134;51.984;5.652;2023-04-01T00:59:34;11.8;81.8
78793;SHT31;68134;51.984;5.652;2023-04-01T01:02:08;11.8;81.9
78793;SHT31;68134;51.984;5.652;2023-04-01T01:04:39;11.8;82.0
78793;SHT31;68134;51.984;5.652;2023-04-01T01:07:22;11.8;82.1
78793;SHT31;68134;51.984;5.652;2023-04-01T01:10:03;11.8;82.3
78793;SHT31;68134;51.984;5.652;2023-04-01T01:12:40;11.8;82.1
78793;SHT31;68134;51.984;5.652;2023-04-01T01:15:21;11.8;81.9
78793;SHT31;68134;51.984;5.652;2023-04-01T01:18:00;11.8;82.0
78793;SHT31;68134;51.984;5.652;2023-04-01T01:21:31;11.8;81.9
78793;SHT31;68134;51.984;5.652;2023-04-01T01:24:13;11.8;82.0
78793;SHT31;68134;51.984;5.652;2023-04-01T01:27:10;11.8;81.8
78793;SHT31;68134;51.984;5.652;2023-04-01T01:30:00;11.8;81.7
78793;SHT31;68134;51.984;5.652;2023-04-01T01:32:56;11.8;81.6
78793;SHT31;68134;51.984;5.652;2023-04-01T01:35:32;11.8;80.8
78793;SHT31;68134;51.984;5.652;2023-04-01T01:38:05;11.8;80.6
78793;SHT31;68134;51.984;5.652;2023-04-01T01:40:41;11.8;80.5
78793;SHT31;68134;51.984;5.652;2023-04-01T01:43:16;11.7;80.2
78793;SHT31;68134;51.984;5.652;2023-04-01T01:45:52;11.7;80.6
78793;SHT31;68134;51.984;5.652;2023-04-01T01:48:24;11.7;80.4
78793;SHT31;68134;51.984;5.652;2023-04-01T01:50:55;11.7;80.3
78793;SHT31;68134;51.984;5.652;2023-04-01T01:53:24;11.7;80.4
78793;SHT31;68134;51.984;5.652;2023-04-01T01:55:54;11.7;80.3
78793;SHT31;68134;51.984;5.652;2023-04-01T01:58:27;11.7;79.8
78793;SHT31;68134;51.984;5.652;2023-04-01T02:01:01;11.7;79.6
78793;SHT31;68134;51.984;5.652;2023-04-01T02:03:35;11.7;79.6
78793;SHT31;68134;51.984;5.652;2023-04-01T02:06:09;11.7;79.8
78793;SHT31;68134;51.984;5.652;2023-04-01T02:08:43;11.7;79.6
78793;SHT31;68134;51.984;5.652;2023-04-01T02:11:17;11.7;79.9
78793;SHT31;68134;51.984;5.652;2023-04-01T02:13:52;11.6;80.2
78793;SHT31;68134;51.984;5.652;2023-04-01T02:16:27;11.6;80.4
78793;SHT31;68134;51.984;5.652;2023-04-01T02:18:59;11.6;80.5
78793;SHT31;68134;51.984;5.652;2023-04-01T02:21:32;11.6;80.5
78793;SHT31;68134;51.984;5.652;2023-04-01T02:24:13;11.6;80.6
78793;SHT31;68134;51.984;5.652;2023-04-01T02:26:40;11.6;80.6
78793;SHT31;68134;51.984;5.652;2023-04-01T02:29:12;11.6;80.7
78793;SHT31;68134;51.984;5.652;2023-04-01T02:31:43;11.6;80.6
78793;SHT31;68134;51.984;5.652;2023-04-01T02:34:13;11.6;80.7
78793;SHT31;68134;51.984;5.652;2023-04-01T02:36:44;11.6;80.6
78793;SHT31;68134;51.984;5.652;2023-04-01T02:39:13;11.6;80.5
78793;SHT31;68134;51.984;5.652;2023-04-01T02:41:45;11.6;80.6
78793;SHT31;68134;51.984;5.652;2023-04-01T02:44:15;11.6;80.7
78793;SHT31;68134;51.984;5.652;2023-04-01T02:46:45;11.6;80.8
78793;SHT31;68134;51.984;5.652;2023-04-01T02:49:15;11.6;80.6
78793;SHT31;68134;51.984;5.652;2023-04-01T02:51:45;11.6;80.5
78793;SHT31;68134;51.984;5.652;2023-04-01T02:54:14;11.6;80.2
78793;SHT31;68134;51.984;5.652;2023-04-01T02:56:44;11.6;80.1
78793;SHT31;68134;51.984;5.652;2023-04-01T02:59:15;11.6;80.1
78793;SHT31;68134;51.984;5.652;2023-04-01T03:01:45;11.6;79.8
78793;SHT31;68134;51.984;5.652;2023-04-01T03:04:14;11.6;80.0
78793;SHT31;68134;51.984;5.652;2023-04-01T03:06:44;11.6;80.0
78793;SHT31;68134;51.984;5.652;2023-04-01T03:09:14;11.6;80.0
78793;SHT31;68134;51.984;5.652;2023-04-01T03:11:43;11.6;79.9
78793;SHT31;68134;51.984;5.652;2023-04-01T03:14:13;11.6;79.9
78793;SHT31;68134;51.984;5.652;2023-04-01T03:16:42;11.5;80.1
78793;SHT31;68134;51.984;5.652;2023-04-01T03:19:12;11.5;80.4
78793;SHT31;68134;51.984;5.652;2023-04-01T03:21:42;11.5;80.2
78793;SHT31;68134;51.984;5.652;2023-04-01T03:24:12;11.5;80.1
78793;SHT31;68134;51.984;5.652;2023-04-01T03:26:42;11.5;80.1
78793;SHT31;68134;51.984;5.652;2023-04-01T03:29:11;11.5;80.2
78793;SHT31;68134;51.984;5.652;2023-04-01T03:31:43;11.5;80.2
78793;SHT31;68134;51.984;5.652;2023-04-01T03:34:12;11.5;80.4
78793;SHT31;68134;51.984;5.652;2023-04-01T03:36:42;11.5;80.5
78793;SHT31;68134;51.984;5.652;2023-04-01T03:39:12;11.5;80.4
78793;SHT31;68134;51.984;5.652;2023-04-01T03:41:43;11.5;80.2
78793;SHT31;68134;51.984;5.652;2023-04-01T03:44:13;11.4;80.3
78793;SHT31;68134;51.984;5.652;2023-04-01T03:46:43;11.4;80.3
78793;SHT31;68134;51.984;5.652;2023-04-01T03:49:13;11.4;80.5
78793;SHT31;68134;51.984;5.652;2023-04-01T03:51:43;11.4;80.6
78793;SHT31;68134;51.984;5.652;2023-04-01T03:54:13;11.4;80.6
78793;SHT31;68134;51.984;5.652;2023-04-01T03:56:43;11.4;80.6
78793;SHT31;68134;51.984;5.652;2023-04-01T03:59:13;11.4;80.7
78793;SHT31;68134;51.984;5.652;2023-04-01T04:01:43;11.4;80.8
78793;SHT31;68134;51.984;5.652;2023-04-01T04:04:15;11.4;80.7
78793;SHT31;68134;51.984;5.652;2023-04-01T04:06:45;11.4;80.4
78793;SHT31;68134;51.984;5.652;2023-04-01T04:09:15;11.4;80.6
78793;SHT31;68134;51.984;5.652;2023-04-01T04:11:45;11.4;80.9
78793;SHT31;68134;51.984;5.652;2023-04-01T04:14:14;11.4;81.0
78793;SHT31;68134;51.984;5.652;2023-04-01T04:16:44;11.4;81.0
78793;SHT31;68134;51.984;5.652;2023-04-01T04:19:14;11.4;81.1
78793;SHT31;68134;51.984;5.652;2023-04-01T04:21:44;11.4;81.2
78793;SHT31;68134;51.984;5.652;2023-04-01T04:24:14;11.4;81.2
78793;SHT31;68134;51.984;5.652;2023-04-01T04:26:43;11.4;81.3
78793;SHT31;68134;51.984;5.652;2023-04-01T04:29:13;11.4;81.4
78793;SHT31;68134;51.984;5.652;2023-04-01T04:31:43;11.4;81.5
78793;SHT31;68134;51.984;5.652;2023-04-01T04:34:13;11.4;81.4
78793;SHT31;68134;51.984;5.652;2023-04-01T04:36:43;11.4;81.6
78793;SHT31;68134;51.984;5.652;2023-04-01T04:39:12;11.4;81.6
78793;SHT31;68134;51.984;5.652;2023-04-01T04:41:42;11.4;81.6
78793;SHT31;68134;51.984;5.652;2023-04-01T04:44:12;11.4;81.4
78793;SHT31;68134;51.984;5.652;2023-04-01T04:46:42;11.4;81.4
78793;SHT31;68134;51.984;5.652;2023-04-01T04:49:12;11.5;81.3
78793;SHT31;68134;51.984;5.652;2023-04-01T04:51:44;11.5;81.2
78793;SHT31;68134;51.984;5.652;2023-04-01T04:54:14;11.5;81.2
78793;SHT31;68134;51.984;5.652;2023-04-01T04:56:43;11.5;81.2
78793;SHT31;68134;51.984;5.652;2023-04-01T04:59:13;11.5;81.1
78793;SHT31;68134;51.984;5.652;2023-04-01T05:01:43;11.6;81.2
78793;SHT31;68134;51.984;5.652;2023-04-01T05:04:12;11.6;81.2
78793;SHT31;68134;51.984;5.652;2023-04-01T05:06:42;11.6;81.1
78793;SHT31;68134;51.984;5.652;2023-04-01T05:09:13;11.6;81.1
78793;SHT31;68134;51.984;5.652;2023-04-01T05:11:42;11.6;81.1
78793;SHT31;68134;51.984;5.652;2023-04-01T05:14:16;11.7;81.0
78793;SHT31;68134;51.984;5.652;2023-04-01T05:16:46;11.7;80.9
78793;SHT31;68134;51.984;5.652;2023-04-01T05:19:19;11.7;81.0
78793;SHT31;68134;51.984;5.652;2023-04-01T05:21:49;11.7;81.0
78793;SHT31;68134;51.984;5.652;2023-04-01T05:24:20;11.8;80.9
78793;SHT31;68134;51.984;5.652;2023-04-01T05:26:49;11.8;80.9
78793;SHT31;68134;51.984;5.652;2023-04-01T05:29:19;11.8;80.9
78793;SHT31;68134;51.984;5.652;2023-04-01T05:31:49;11.8;80.9
78793;SHT31;68134;51.984;5.652;2023-04-01T05:34:21;11.9;80.8
78793;SHT31;68134;51.984;5.652;2023-04-01T05:36:51;11.9;80.8
78793;SHT31;68134;51.984;5.652;2023-04-01T05:39:20;11.9;80.7
78793;SHT31;68134;51.984;5.652;2023-04-01T05:41:50;11.9;80.7
78793;SHT31;68134;51.984;5.652;2023-04-01T05:44:20;12.0;80.7
78793;SHT31;68134;51.984;5.652;2023-04-01T05:46:50;12.0;80.7
78793;SHT31;68134;51.984;5.652;2023-04-01T05:49:19;12.0;80.6
78793;SHT31;68134;51.984;5.652;2023-04-01T05:51:49;12.0;80.7
78793;SHT31;68134;51.984;5.652;2023-04-01T05:54:19;12.0;80.6
78793;SHT31;68134;51.984;5.652;2023-04-01T05:56:49;12.0;80.6
78793;SHT31;68134;51.984;5.652;2023-04-01T05:59:19;12.1;80.6
78793;SHT31;68134;51.984;5.652;2023-04-01T06:01:49;12.1;80.7
78793;SHT31;68134;51.984;5.652;2023-04-01T06:04:18;12.1;80.6
78793;SHT31;68134;51.984;5.652;2023-04-01T06:06:51;12.1;80.5
78793;SHT31;68134;51.984;5.652;2023-04-01T06:09:26;12.1;80.5
78793;SHT31;68134;51.984;5.652;2023-04-01T06:16:35;12.2;80.3
78793;SHT31;68134;51.984;5.652;2023-04-01T06:19:14;12.2;80.4
78793;SHT31;68134;51.984;5.652;2023-04-01T06:23:49;12.2;80.3
78793;SHT31;68134;51.984;5.652;2023-04-01T06:26:29;12.2;80.3
78793;SHT31;68134;51.984;5.652;2023-04-01T06:29:22;12.2;80.3
78793;SHT31;68134;51.984;5.652;2023-04-01T06:32:14;12.3;80.3
78793;SHT31;68134;51.984;5.652;2023-04-01T06:35:04;12.3;80.3
78793;SHT31;68134;51.984;5.652;2023-04-01T06:39:12;12.3;80.3
78793;SHT31;68134;51.984;5.652;2023-04-01T06:42:23;12.3;80.3
78793;SHT31;68134;51.984;5.652;2023-04-01T06:45:07;12.3;80.1
78793;SHT31;68134;51.984;5.652;2023-04-01T06:47:53;12.4;79.9
78793;SHT31;68134;51.984;5.652;2023-04-01T06:50:33;12.4;79.9
78793;SHT31;68134;51.984;5.652;2023-04-01T06:53:13;12.4;79.9
78793;SHT31;68134;51.984;5.652;2023-04-01T06:55:47;12.4;79.8
78793;SHT31;68134;51.984;5.652;2023-04-01T06:58:23;12.4;79.9
78793;SHT31;68134;51.984;5.652;2023-04-01T07:00:57;12.4;79.8
78793;SHT31;68134;51.984;5.652;2023-04-01T07:03:32;12.4;79.8
78793;SHT31;68134;51.984;5.652;2023-04-01T07:06:05;12.4;79.8
78793;SHT31;68134;51.984;5.652;2023-04-01T07:08:38;12.4;79.8
78793;SHT31;68134;51.984;5.652;2023-04-01T07:11:21;12.4;79.8
78793;SHT31;68134;51.984;5.652;2023-04-01T07:13:58;12.4;79.8
78793;SHT31;68134;51.984;5.652;2023-04-01T07:16:33;12.4;79.8
78793;SHT31;68134;51.984;5.652;2023-04-01T07:19:14;12.5;79.7
78793;SHT31;68134;51.984;5.652;2023-04-01T07:21:48;12.5;79.8
78793;SHT31;68134;51.984;5.652;2023-04-01T07:24:25;12.5;79.8
78793;SHT31;68134;51.984;5.652;2023-04-01T07:26:57;12.5;79.5
78793;SHT31;68134;51.984;5.652;2023-04-01T07:29:28;12.5;79.7
78793;SHT31;68134;51.984;5.652;2023-04-01T07:32:09;12.5;80.1
78793;SHT31;68134;51.984;5.652;2023-04-01T07:34:58;12.5;79.8
78793;SHT31;68134;51.984;5.652;2023-04-01T07:37:42;12.5;79.8
78793;SHT31;68134;51.984;5.652;2023-04-01T07:40:24;12.6;79.8
78793;SHT31;68134;51.984;5.652;2023-04-01T07:43:10;12.6;79.4
78793;SHT31;68134;51.984;5.652;2023-04-01T07:45:50;12.6;79.6
78793;SHT31;68134;51.984;5.652;2023-04-01T07:48:27;12.6;79.3
78793;SHT31;68134;51.984;5.652;2023-04-01T07:51:06;12.6;79.1
78793;SHT31;68134;51.984;5.652;2023-04-01T07:53:46;12.6;79.1
78793;SHT31;68134;51.984;5.652;2023-04-01T07:56:24;12.6;79.2
78793;SHT31;68134;51.984;5.652;2023-04-01T07:59:05;12.7;78.9
78793;SHT31;68134;51.984;5.652;2023-04-01T08:01:48;12.7;78.7
78793;SHT31;68134;51.984;5.652;2023-04-01T08:04:27;12.7;78.9
78793;SHT31;68134;51.984;5.652;2023-04-01T08:07:07;12.7;78.6
78793;SHT31;68134;51.984;5.652;2023-04-01T08:09:47;12.7;78.5
78793;SHT31;68134;51.984;5.652;2023-04-01T08:12:31;12.7;78.7
78793;SHT31;68134;51.984;5.652;2023-04-01T08:15:11;12.7;78.5
78793;SHT31;68134;51.984;5.652;2023-04-01T08:17:56;12.7;78.7
78793;SHT31;68134;51.984;5.652;2023-04-01T08:20:36;12.7;78.6
78793;SHT31;68134;51.984;5.652;2023-04-01T08:23:13;12.8;79.2
78793;SHT31;68134;51.984;5.652;2023-04-01T08:25:48;12.8;78.8
78793;SHT31;68134;51.984;5.652;2023-04-01T08:28:25;12.8;78.9
78793;SHT31;68134;51.984;5.652;2023-04-01T08:31:03;12.8;79.3
78793;SHT31;68134;51.984;5.652;2023-04-01T08:33:34;12.8;79.4
78793;SHT31;68134;51.984;5.652;2023-04-01T08:36:09;12.8;79.2
78793;SHT31;68134;51.984;5.652;2023-04-01T08:38:43;12.8;79.6
78793;SHT31;68134;51.984;5.652;2023-04-01T08:41:28;12.9;79.3
78793;SHT31;68134;51.984;5.652;2023-04-01T08:44:27;12.9;79.3
78793;SHT31;68134;51.984;5.652;2023-04-01T08:47:25;12.9;79.1
78793;SHT31;68134;51.984;5.652;2023-04-01T08:50:33;12.9;79.1
78793;SHT31;68134;51.984;5.652;2023-04-01T08:53:16;13.0;79.5
78793;SHT31;68134;51.984;5.652;2023-04-01T08:56:04;13.0;79.4
78793;SHT31;68134;51.984;5.652;2023-04-01T08:58:57;13.0;79.3
78793;SHT31;68134;51.984;5.652;2023-04-01T09:02:53;13.0;79.0
78793;SHT31;68134;51.984;5.652;2023-04-01T09:05:36;13.1;78.2
78793;SHT31;68134;51.984;5.652;2023-04-01T09:08:25;13.1;78.3
78793;SHT31;68134;51.984;5.652;2023-04-01T09:11:29;13.1;78.1
78793;SHT31;68134;51.984;5.652;2023-04-01T09:14:09;13.1;78.1
78793;SHT31;68134;51.984;5.652;2023-04-01T09:17:16;13.1;77.9
78793;SHT31;68134;51.984;5.652;2023-04-01T09:22:50;13.1;78.9
78793;SHT31;68134;51.984;5.652;2023-04-01T09:25:48;13.1;79.3
78793;SHT31;68134;51.984;5.652;2023-04-01T09:28:33;13.2;78.8
78793;SHT31;68134;51.984;5.652;2023-04-01T09:31:42;13.2;79.5
78793;SHT31;68134;51.984;5.652;2023-04-01T09:34:30;13.2;79.1
78793;SHT31;68134;51.984;5.652;2023-04-01T09:37:17;13.3;78.5
78793;SHT31;68134;51.984;5.652;2023-04-01T09:40:13;13.3;78.1
78793;SHT31;68134;51.984;5.652;2023-04-01T09:42:52;13.4;77.2
78793;SHT31;68134;51.984;5.652;2023-04-01T09:45:40;13.4;77.9
78793;SHT31;68134;51.984;5.652;2023-04-01T09:48:34;13.4;78.2
78793;SHT31;68134;51.984;5.652;2023-04-01T09:51:18;13.5;78.6
78793;SHT31;68134;51.984;5.652;2023-04-01T09:54:04;13.5;78.8
78793;SHT31;68134;51.984;5.652;2023-04-01T09:57:05;13.6;77.9
78793;SHT31;68134;51.984;5.652;2023-04-01T10:00:04;13.6;78.5
78793;SHT31;68134;51.984;5.652;2023-04-01T10:03:37;13.7;77.9
78793;SHT31;68134;51.984;5.652;2023-04-01T10:07:42;13.8;78.5
78793;SHT31;68134;51.984;5.652;2023-04-01T10:10:50;13.9;77.2
78793;SHT31;68134;51.984;5.652;2023-04-01T10:16:51;14.3;78.2
78793;SHT31;68134;51.984;5.652;2023-04-01T10:20:11;14.5;77.0
78793;SHT31;68134;51.984;5.652;2023-04-01T10:23:25;14.7;74.8
78793;SHT31;68134;51.984;5.652;2023-04-01T10:26:22;14.9;77.7
78793;SHT31;68134;51.984;5.652;2023-04-01T10:29:18;15.1;76.0
78793;SHT31;68134;51.984;5.652;2023-04-01T10:36:57;16.0;72.3
78793;SHT31;68134;51.984;5.652;2023-04-01T10:40:38;16.1;71.6
78793;SHT31;68134;51.984;5.652;2023-04-01T10:43:24;16.3;69.7
78793;SHT31;68134;51.984;5.652;2023-04-01T10:51:18;16.4;69.4
78793;SHT31;68134;51.984;5.652;2023-04-01T10:54:16;16.4;68.1
78793;SHT31;68134;51.984;5.652;2023-04-01T10:57:10;16.4;69.2
78793;SHT31;68134;51.984;5.652;2023-04-01T11:04:50;16.5;67.5
78793;SHT31;68134;51.984;5.652;2023-04-01T11:08:26;16.5;65.9
78793;SHT31;68134;51.984;5.652;2023-04-01T11:11:26;16.4;66.3
78793;SHT31;68134;51.984;5.652;2023-04-01T11:19:34;16.1;67.2
78793;SHT31;68134;51.984;5.652;2023-04-01T11:22:16;15.9;67.7
78793;SHT31;68134;51.984;5.652;2023-04-01T11:25:18;15.8;68.0
78793;SHT31;68134;51.984;5.652;2023-04-01T11:28:07;15.8;68.8
78793;SHT31;68134;51.984;5.652;2023-04-01T11:31:00;15.7;68.5
78793;SHT31;68134;51.984;5.652;2023-04-01T11:33:39;15.6;69.6
78793;SHT31;68134;51.984;5.652;2023-04-01T11:36:23;15.6;69.5
78793;SHT31;68134;51.984;5.652;2023-04-01T11:39:11;15.6;69.6
78793;SHT31;68134;51.984;5.652;2023-04-01T11:41:54;15.6;69.7
78793;SHT31;68134;51.984;5.652;2023-04-01T11:44:27;15.6;69.6
78793;SHT31;68134;51.984;5.652;2023-04-01T11:47:22;15.6;69.6
78793;SHT31;68134;51.984;5.652;2023-04-01T11:50:14;15.6;69.5
78793;SHT31;68134;51.984;5.652;2023-04-01T11:53:04;15.5;68.2
78793;SHT31;68134;51.984;5.652;2023-04-01T11:55:50;15.5;69.3
78793;SHT31;68134;51.984;5.652;2023-04-01T11:59:00;15.5;69.2
78793;SHT31;68134;51.984;5.652;2023-04-01T12:01:59;15.4;70.3
78793;SHT31;68134;51.984;5.652;2023-04-01T12:05:03;15.3;70.3
78793;SHT31;68134;51.984;5.652;2023-04-01T12:07:58;15.3;71.3
78793;SHT31;68134;51.984;5.652;2023-04-01T12:10:40;15.3;72.7
78793;SHT31;68134;51.984;5.652;2023-04-01T12:13:28;15.2;71.7
78793;SHT31;68134;51.984;5.652;2023-04-01T12:16:16;15.2;71.5
78793;SHT31;68134;51.984;5.652;2023-04-01T12:18:54;15.2;71.6
78793;SHT31;68134;51.984;5.652;2023-04-01T12:21:34;15.2;70.8
78793;SHT31;68134;51.984;5.652;2023-04-01T12:24:29;15.2;71.8
78793;SHT31;68134;51.984;5.652;2023-04-01T12:27:31;15.2;71.4
78793;SHT31;68134;51.984;5.652;2023-04-01T12:31:35;15.2;71.3
78793;SHT31;68134;51.984;5.652;2023-04-01T12:34:43;15.2;71.3
78793;SHT31;68134;51.984;5.652;2023-04-01T12:37:24;15.2;70.0
78793;SHT31;68134;51.984;5.652;2023-04-01T12:40:44;15.2;70.4
78793;SHT31;68134;51.984;5.652;2023-04-01T12:44:26;15.2;70.0
78793;SHT31;68134;51.984;5.652;2023-04-01T12:47:14;15.2;71.1
78793;SHT31;68134;51.984;5.652;2023-04-01T12:49:55;15.2;71.4
78793;SHT31;68134;51.984;5.652;2023-04-01T12:52:37;15.2;71.8
78793;SHT31;68134;51.984;5.652;2023-04-01T12:55:37;15.2;72.4
78793;SHT31;68134;51.984;5.652;2023-04-01T12:58:25;15.2;71.8
78793;SHT31;68134;51.984;5.652;2023-04-01T13:01:22;15.2;71.6
78793;SHT31;68134;51.984;5.652;2023-04-01T13:07:10;15.2;71.3
78793;SHT31;68134;51.984;5.652;2023-04-01T13:09:49;15.2;71.6
78793;SHT31;68134;51.984;5.652;2023-04-01T13:12:39;15.3;71.5
78793;SHT31;68134;51.984;5.652;2023-04-01T13:15:26;15.3;71.7
78793;SHT31;68134;51.984;5.652;2023-04-01T13:18:10;15.3;71.5
78793;SHT31;68134;51.984;5.652;2023-04-01T13:20:51;15.3;71.1
78793;SHT31;68134;51.984;5.652;2023-04-01T13:23:36;15.3;72.1
78793;SHT31;68134;51.984;5.652;2023-04-01T13:26:16;15.3;71.8
78793;SHT31;68134;51.984;5.652;2023-04-01T13:28:56;15.3;73.3
78793;SHT31;68134;51.984;5.652;2023-04-01T13:32:03;15.3;72.1
78793;SHT31;68134;51.984;5.652;2023-04-01T13:34:46;15.3;70.8
78793;SHT31;68134;51.984;5.652;2023-04-01T13:37:30;15.3;71.4
78793;SHT31;68134;51.984;5.652;2023-04-01T13:40:23;15.2;70.9
78793;SHT31;68134;51.984;5.652;2023-04-01T13:42:59;15.2;70.9
78793;SHT31;68134;51.984;5.652;2023-04-01T13:45:42;15.1;71.3
78793;SHT31;68134;51.984;5.652;2023-04-01T13:48:42;15.1;72.4
78793;SHT31;68134;51.984;5.652;2023-04-01T13:51:54;15.0;71.9
78793;SHT31;68134;51.984;5.652;2023-04-01T13:54:49;15.0;72.2
78793;SHT31;68134;51.984;5.652;2023-04-01T13:57:37;15.0;72.6
78793;SHT31;68134;51.984;5.652;2023-04-01T14:03:09;15.0;72.4
78793;SHT31;68134;51.984;5.652;2023-04-01T14:05:52;14.9;74.1
78793;SHT31;68134;51.984;5.652;2023-04-01T14:08:39;14.9;73.2
78793;SHT31;68134;51.984;5.652;2023-04-01T14:11:17;14.9;74.0
78793;SHT31;68134;51.984;5.652;2023-04-01T14:13:59;14.9;74.1
78793;SHT31;68134;51.984;5.652;2023-04-01T14:16:54;14.9;73.9
78793;SHT31;68134;51.984;5.652;2023-04-01T14:19:39;14.9;74.1
78793;SHT31;68134;51.984;5.652;2023-04-01T14:22:23;14.9;73.5
78793;SHT31;68134;51.984;5.652;2023-04-01T14:25:32;14.9;73.3
78793;SHT31;68134;51.984;5.652;2023-04-01T14:28:18;15.0;73.1
78793;SHT31;68134;51.984;5.652;2023-04-01T14:31:04;15.0;72.9
78793;SHT31;68134;51.984;5.652;2023-04-01T14:33:42;15.0;73.0
78793;SHT31;68134;51.984;5.652;2023-04-01T14:36:32;15.0;73.0
78793;SHT31;68134;51.984;5.652;2023-04-01T14:39:18;14.9;72.7
78793;SHT31;68134;51.984;5.652;2023-04-01T14:42:03;14.9;72.8
78793;SHT31;68134;51.984;5.652;2023-04-01T14:44:51;14.9;72.9
78793;SHT31;68134;51.984;5.652;2023-04-01T14:47:50;14.9;73.3
78793;SHT31;68134;51.984;5.652;2023-04-01T14:50:23;14.9;73.7
78793;SHT31;68134;51.984;5.652;2023-04-01T14:52:59;14.9;74.3
78793;SHT31;68134;51.984;5.652;2023-04-01T14:55:47;14.9;74.5
78793;SHT31;68134;51.984;5.652;2023-04-01T14:58:20;14.9;74.2
78793;SHT31;68134;51.984;5.652;2023-04-01T15:01:06;14.9;74.5
78793;SHT31;68134;51.984;5.652;2023-04-01T15:03:40;14.9;74.5
78793;SHT31;68134;51.984;5.652;2023-04-01T15:06:30;14.9;74.2
78793;SHT31;68134;51.984;5.652;2023-04-01T15:09:11;14.9;73.7
78793;SHT31;68134;51.984;5.652;2023-04-01T15:11:51;14.9;73.7
78793;SHT31;68134;51.984;5.652;2023-04-01T15:14:29;14.9;73.6
78793;SHT31;68134;51.984;5.652;2023-04-01T15:17:22;14.9;73.5
78793;SHT31;68134;51.984;5.652;2023-04-01T15:20:42;14.9;73.3
78793;SHT31;68134;51.984;5.652;2023-04-01T15:23:31;14.9;73.6
78793;SHT31;68134;51.984;5.652;2023-04-01T15:26:42;14.8;73.6
78793;SHT31;68134;51.984;5.652;2023-04-01T15:30:02;14.8;73.9
78793;SHT31;68134;51.984;5.652;2023-04-01T15:32:45;14.8;73.6
78793;SHT31;68134;51.984;5.652;2023-04-01T15:35:26;14.8;73.6
78793;SHT31;68134;51.984;5.652;2023-04-01T15:38:05;14.8;73.1
78793;SHT31;68134;51.984;5.652;2023-04-01T15:40:43;14.8;73.3
78793;SHT31;68134;51.984;5.652;2023-04-01T15:43:30;14.7;73.8
78793;SHT31;68134;51.984;5.652;2023-04-01T15:46:29;14.7;74.0
78793;SHT31;68134;51.984;5.652;2023-04-01T15:49:12;14.7;73.6
78793;SHT31;68134;51.984;5.652;2023-04-01T15:52:05;14.7;73.5
78793;SHT31;68134;51.984;5.652;2023-04-01T15:54:54;14.6;73.5
78793;SHT31;68134;51.984;5.652;2023-04-01T15:57:30;14.6;73.6
78793;SHT31;68134;51.984;5.652;2023-04-01T16:00:11;14.6;73.0
78793;SHT31;68134;51.984;5.652;2023-04-01T16:02:45;14.5;73.0
78793;SHT31;68134;51.984;5.652;2023-04-01T16:05:33;14.5;72.1
78793;SHT31;68134;51.984;5.652;2023-04-01T16:08:23;14.5;73.3
78793;SHT31;68134;51.984;5.652;2023-04-01T16:11:04;14.4;73.1
78793;SHT31;68134;51.984;5.652;2023-04-01T16:13:48;14.4;72.7
78793;SHT31;68134;51.984;5.652;2023-04-01T16:16:35;14.4;72.6
78793;SHT31;68134;51.984;5.652;2023-04-01T16:19:51;14.3;73.0
78793;SHT31;68134;51.984;5.652;2023-04-01T16:22:26;14.3;72.7
78793;SHT31;68134;51.984;5.652;2023-04-01T16:25:17;14.3;72.8
78793;SHT31;68134;51.984;5.652;2023-04-01T16:28:05;14.2;73.3
78793;SHT31;68134;51.984;5.652;2023-04-01T16:30:37;14.2;72.5
78793;SHT31;68134;51.984;5.652;2023-04-01T16:33:15;14.2;73.0
78793;SHT31;68134;51.984;5.652;2023-04-01T16:35:57;14.1;72.6
78793;SHT31;68134;51.984;5.652;2023-04-01T16:38:36;14.1;72.7
78793;SHT31;68134;51.984;5.652;2023-04-01T16:41:13;14.1;72.8
78793;SHT31;68134;51.984;5.652;2023-04-01T16:43:45;14.1;72.9
78793;SHT31;68134;51.984;5.652;2023-04-01T16:46:42;14.0;72.9
78793;SHT31;68134;51.984;5.652;2023-04-01T16:49:35;14.0;73.4
78793;SHT31;68134;51.984;5.652;2023-04-01T16:52:16;14.0;73.7
78793;SHT31;68134;51.984;5.652;2023-04-01T16:54:55;14.0;73.5
78793;SHT31;68134;51.984;5.652;2023-04-01T16:57:37;13.9;72.9
78793;SHT31;68134;51.984;5.652;2023-04-01T17:00:22;13.9;73.2
78793;SHT31;68134;51.984;5.652;2023-04-01T17:03:04;13.9;73.0
78793;SHT31;68134;51.984;5.652;2023-04-01T17:05:54;13.9;72.6
78793;SHT31;68134;51.984;5.652;2023-04-01T17:08:43;13.8;72.5
78793;SHT31;68134;51.984;5.652;2023-04-01T17:11:19;13.8;72.6
78793;SHT31;68134;51.984;5.652;2023-04-01T17:14:02;13.8;73.4
78793;SHT31;68134;51.984;5.652;2023-04-01T17:18:25;13.7;72.9
78793;SHT31;68134;51.984;5.652;2023-04-01T17:21:02;13.7;72.6
78793;SHT31;68134;51.984;5.652;2023-04-01T17:23:37;13.6;72.4
78793;SHT31;68134;51.984;5.652;2023-04-01T17:26:20;13.6;71.9
78793;SHT31;68134;51.984;5.652;2023-04-01T17:28:58;13.5;72.5
78793;SHT31;68134;51.984;5.652;2023-04-01T17:31:58;13.5;72.2
78793;SHT31;68134;51.984;5.652;2023-04-01T17:34:43;13.4;72.1
78793;SHT31;68134;51.984;5.652;2023-04-01T17:37:33;13.4;72.5
78793;SHT31;68134;51.984;5.652;2023-04-01T17:40:20;13.3;72.5
78793;SHT31;68134;51.984;5.652;2023-04-01T17:42:59;13.3;72.3
78793;SHT31;68134;51.984;5.652;2023-04-01T17:45:42;13.3;72.4
78793;SHT31;68134;51.984;5.652;2023-04-01T17:48:22;13.2;72.1
78793;SHT31;68134;51.984;5.652;2023-04-01T17:51:25;13.2;72.6
78793;SHT31;68134;51.984;5.652;2023-04-01T17:54:09;13.1;72.2
78793;SHT31;68134;51.984;5.652;2023-04-01T17:56:55;13.1;72.5
78793;SHT31;68134;51.984;5.652;2023-04-01T17:59:36;13.0;73.1
78793;SHT31;68134;51.984;5.652;2023-04-01T18:02:19;13.0;73.2
78793;SHT31;68134;51.984;5.652;2023-04-01T18:05:03;12.9;73.0
78793;SHT31;68134;51.984;5.652;2023-04-01T18:07:46;12.9;73.2
78793;SHT31;68134;51.984;5.652;2023-04-01T18:10:26;12.9;72.8
78793;SHT31;68134;51.984;5.652;2023-04-01T18:15:15;12.9;72.2
78793;SHT31;68134;51.984;5.652;2023-04-01T18:18:02;12.8;72.4
78793;SHT31;68134;51.984;5.652;2023-04-01T18:20:46;12.8;72.7
78793;SHT31;68134;51.984;5.652;2023-04-01T18:23:30;12.7;72.8